sensor_id;sensor_type;location;lat;lon;timestamp;pressure;altitude;pressure_sealevel;temperature;humidity
67840;BME280;54636;51.684;5.142;2022-10-16T00:01:28;101042.44;;;10.93;100.00
67840;BME280;54636;51.684;5.142;2022-10-16T00:03:55;101065.06;;;11.04;100.00
67840;BME280;54636;51.684;5.142;2022-10-16T00:06:22;101052.81;;;10.94;100.00
67840;BME280;54636;51.684;5.142;2022-10-16T00:08:48;101054.59;;;10.97;100.00
67840;BME280;54636;51.684;5.142;2022-10-16T00:11:18;101047.06;;;10.86;100.00
67840;BME280;54636;51.684;5.142;2022-10-16T00:13:45;101051.59;;;10.95;100.00
67840;BME280;54636;51.684;5.142;2022-10-16T00:16:11;101048.13;;;10.95;100.00
67840;BME280;54636;51.684;5.142;2022-10-16T00:18:38;101039.66;;;10.87;100.00
67840;BME280;54636;51.684;5.142;2022-10-16T00:21:12;101036.88;;;10.81;100.00
67840;BME280;54636;51.684;5.142;2022-10-16T00:23:38;101049.34;;;10.94;100.00
67840;BME280;54636;51.684;5.142;2022-10-16T00:26:07;101054.59;;;10.97;100.00
67840;BME280;54636;51.684;5.142;2022-10-16T00:28:34;101034.28;;;10.93;100.00
67840;BME280;54636;51.684;5.142;2022-10-16T00:31:09;101051.19;;;11.02;100.00
67840;BME280;54636;51.684;5.142;2022-10-16T00:33:36;101056.19;;;11.09;100.00
67840;BME280;54636;51.684;5.142;2022-10-16T00:36:03;101023.53;;;11.04;100.00
67840;BME280;54636;51.684;5.142;2022-10-16T00:38:29;101038.72;;;11.16;100.00
67840;BME280;54636;51.684;5.142;2022-10-16T00:40:55;101007.63;;;10.97;100.00
67840;BME280;54636;51.684;5.142;2022-10-16T00:48:40;101051.81;;;11.17;100.00
67840;BME280;54636;51.684;5.142;2022-10-16T00:51:07;101040.41;;;11.13;100.00
67840;BME280;54636;51.684;5.142;2022-10-16T00:53:33;101065.06;;;11.30;100.00
67840;BME280;54636;51.684;5.142;2022-10-16T00:55:59;101042.28;;;11.28;100.00
67840;BME280;54636;51.684;5.142;2022-10-16T00:58:24;101056.28;;;11.41;100.00
67840;BME280;54636;51.684;5.142;2022-10-16T01:00:49;101061.78;;;11.46;100.00
67840;BME280;54636;51.684;5.142;2022-10-16T01:06:18;101060.44;;;11.62;100.00
67840;BME280;54636;51.684;5.142;2022-10-16T01:08:53;101057.03;;;11.67;100.00
67840;BME280;54636;51.684;5.142;2022-10-16T01:11:34;101061.53;;;11.76;100.00
67840;BME280;54636;51.684;5.142;2022-10-16T01:14:11;101041.19;;;11.71;100.00
67840;BME280;54636;51.684;5.142;2022-10-16T01:17:28;101043.44;;;11.73;100.00
67840;BME280;54636;51.684;5.142;2022-10-16T01:22:20;101058.97;;;11.93;100.00
67840;BME280;54636;51.684;5.142;2022-10-16T01:24:48;101051.31;;;11.97;100.00
67840;BME280;54636;51.684;5.142;2022-10-16T01:29:53;101046.63;;;11.97;100.00
67840;BME280;54636;51.684;5.142;2022-10-16T01:34:57;101030.75;;;11.90;100.00
67840;BME280;54636;51.684;5.142;2022-10-16T01:37:37;101037.09;;;11.81;100.00
67840;BME280;54636;51.684;5.142;2022-10-16T01:40:11;101051.94;;;11.80;100.00
67840;BME280;54636;51.684;5.142;2022-10-16T01:42:47;101046.63;;;11.71;100.00
67840;BME280;54636;51.684;5.142;2022-10-16T01:45:15;101039.00;;;11.70;100.00
67840;BME280;54636;51.684;5.142;2022-10-16T01:47:44;101040.09;;;11.83;100.00
67840;BME280;54636;51.684;5.142;2022-10-16T01:50:12;101037.50;;;11.74;100.00
67840;BME280;54636;51.684;5.142;2022-10-16T01:52:42;101027.34;;;11.69;100.00
67840;BME280;54636;51.684;5.142;2022-10-16T01:55:10;101029.56;;;11.65;100.00
67840;BME280;54636;51.684;5.142;2022-10-16T01:57:41;101041.59;;;11.59;100.00
67840;BME280;54636;51.684;5.142;2022-10-16T02:00:09;101050.84;;;11.67;100.00
67840;BME280;54636;51.684;5.142;2022-10-16T02:02:36;101042.19;;;11.68;100.00
67840;BME280;54636;51.684;5.142;2022-10-16T02:07:48;101059.44;;;11.60;100.00
67840;BME280;54636;51.684;5.142;2022-10-16T02:10:14;101057.19;;;11.58;100.00
67840;BME280;54636;51.684;5.142;2022-10-16T02:12:44;101065.34;;;11.58;100.00
67840;BME280;54636;51.684;5.142;2022-10-16T02:15:11;101063.31;;;11.53;100.00
67840;BME280;54636;51.684;5.142;2022-10-16T02:17:37;101065.50;;;11.49;100.00
67840;BME280;54636;51.684;5.142;2022-10-16T02:20:03;101067.97;;;11.47;100.00
67840;BME280;54636;51.684;5.142;2022-10-16T02:22:39;101063.47;;;11.44;100.00
67840;BME280;54636;51.684;5.142;2022-10-16T02:25:07;101061.19;;;11.37;100.00
67840;BME280;54636;51.684;5.142;2022-10-16T02:27:56;101063.56;;;11.29;100.00
67840;BME280;54636;51.684;5.142;2022-10-16T02:30:36;101061.53;;;11.24;100.00
67840;BME280;54636;51.684;5.142;2022-10-16T02:33:07;101059.28;;;11.22;100.00
67840;BME280;54636;51.684;5.142;2022-10-16T02:35:34;101052.91;;;11.26;100.00
67840;BME280;54636;51.684;5.142;2022-10-16T02:38:01;101069.00;;;11.29;100.00
67840;BME280;54636;51.684;5.142;2022-10-16T02:40:27;101054.06;;;11.19;100.00
67840;BME280;54636;51.684;5.142;2022-10-16T02:42:54;101076.91;;;11.27;100.00
67840;BME280;54636;51.684;5.142;2022-10-16T02:45:20;101067.25;;;11.26;100.00
67840;BME280;54636;51.684;5.142;2022-10-16T02:47:46;101072.69;;;11.26;100.00
67840;BME280;54636;51.684;5.142;2022-10-16T02:50:12;101064.00;;;11.22;100.00
67840;BME280;54636;51.684;5.142;2022-10-16T02:52:37;101062.81;;;11.29;100.00
67840;BME280;54636;51.684;5.142;2022-10-16T02:55:03;101051.75;;;11.32;100.00
67840;BME280;54636;51.684;5.142;2022-10-16T02:57:29;101048.81;;;11.36;100.00
67840;BME280;54636;51.684;5.142;2022-10-16T02:59:54;101046.63;;;11.40;100.00
67840;BME280;54636;51.684;5.142;2022-10-16T03:02:20;101041.25;;;11.45;100.00
67840;BME280;54636;51.684;5.142;2022-10-16T03:04:46;101055.38;;;11.49;100.00
67840;BME280;54636;51.684;5.142;2022-10-16T03:07:11;101063.81;;;11.51;100.00
67840;BME280;54636;51.684;5.142;2022-10-16T03:09:36;101060.53;;;11.47;100.00
67840;BME280;54636;51.684;5.142;2022-10-16T03:12:02;101057.56;;;11.45;100.00
67840;BME280;54636;51.684;5.142;2022-10-16T03:14:27;101063.81;;;11.51;100.00
67840;BME280;54636;51.684;5.142;2022-10-16T03:16:53;101023.47;;;11.24;100.00
67840;BME280;54636;51.684;5.142;2022-10-16T03:19:18;101073.06;;;11.39;100.00
67840;BME280;54636;51.684;5.142;2022-10-16T03:21:44;101041.50;;;11.21;100.00
67840;BME280;54636;51.684;5.142;2022-10-16T03:24:10;101080.47;;;11.39;100.00
67840;BME280;54636;51.684;5.142;2022-10-16T03:26:36;101064.00;;;11.22;100.00
67840;BME280;54636;51.684;5.142;2022-10-16T03:29:01;101070.13;;;11.17;100.00
67840;BME280;54636;51.684;5.142;2022-10-16T03:31:28;101085.53;;;11.26;100.00
67840;BME280;54636;51.684;5.142;2022-10-16T03:33:54;101081.72;;;11.17;100.00
67840;BME280;54636;51.684;5.142;2022-10-16T03:36:19;101083.63;;;11.11;100.00
67840;BME280;54636;51.684;5.142;2022-10-16T03:38:44;101091.13;;;11.16;100.00
67840;BME280;54636;51.684;5.142;2022-10-16T03:41:10;101071.28;;;11.10;100.00
67840;BME280;54636;51.684;5.142;2022-10-16T03:43:35;101077.66;;;11.07;100.00
67840;BME280;54636;51.684;5.142;2022-10-16T03:46:01;101101.25;;;11.16;100.00
67840;BME280;54636;51.684;5.142;2022-10-16T03:48:26;101103.97;;;11.16;100.00
67840;BME280;54636;51.684;5.142;2022-10-16T03:50:51;101096.56;;;11.16;100.00
67840;BME280;54636;51.684;5.142;2022-10-16T03:53:17;101112.19;;;11.21;100.00
67840;BME280;54636;51.684;5.142;2022-10-16T03:55:43;101107.00;;;11.23;100.00
67840;BME280;54636;51.684;5.142;2022-10-16T03:58:09;101104.69;;;11.37;100.00
67840;BME280;54636;51.684;5.142;2022-10-16T04:00:34;101088.19;;;11.20;100.00
67840;BME280;54636;51.684;5.142;2022-10-16T04:03:00;101106.34;;;11.29;100.00
67840;BME280;54636;51.684;5.142;2022-10-16T04:05:26;101105.59;;;11.28;100.00
67840;BME280;54636;51.684;5.142;2022-10-16T04:07:54;101109.06;;;11.29;100.00
67840;BME280;54636;51.684;5.142;2022-10-16T04:10:20;101105.53;;;11.22;100.00
67840;BME280;54636;51.684;5.142;2022-10-16T04:12:45;101119.44;;;11.30;100.00
67840;BME280;54636;51.684;5.142;2022-10-16T04:15:10;101112.53;;;11.29;100.00
67840;BME280;54636;51.684;5.142;2022-10-16T04:17:36;101110.97;;;11.22;100.00
67840;BME280;54636;51.684;5.142;2022-10-16T04:20:02;101124.88;;;11.30;100.00
67840;BME280;54636;51.684;5.142;2022-10-16T04:22:28;101124.34;;;11.26;100.00
67840;BME280;54636;51.684;5.142;2022-10-16T04:24:53;101119.78;;;11.17;100.00
67840;BME280;54636;51.684;5.142;2022-10-16T04:27:19;101100.44;;;11.10;100.00
67840;BME280;54636;51.684;5.142;2022-10-16T04:29:44;101121.84;;;11.22;100.00
67840;BME280;54636;51.684;5.142;2022-10-16T04:32:09;101098.81;;;10.98;100.00
67840;BME280;54636;51.684;5.142;2022-10-16T04:34:35;101134.81;;;11.13;100.00
67840;BME280;54636;51.684;5.142;2022-10-16T04:37:00;101091.13;;;10.76;100.00
67840;BME280;54636;51.684;5.142;2022-10-16T04:39:25;101136.94;;;11.03;100.00
67840;BME280;54636;51.684;5.142;2022-10-16T04:41:51;101150.00;;;10.99;100.00
67840;BME280;54636;51.684;5.142;2022-10-16T04:44:16;101145.44;;;10.91;100.00
67840;BME280;54636;51.684;5.142;2022-10-16T04:46:41;101149.09;;;10.87;100.00
67840;BME280;54636;51.684;5.142;2022-10-16T04:49:07;101162.22;;;10.89;100.00
67840;BME280;54636;51.684;5.142;2022-10-16T04:51:32;101116.56;;;10.58;100.00
67840;BME280;54636;51.684;5.142;2022-10-16T04:53:58;101153.63;;;10.76;100.00
67840;BME280;54636;51.684;5.142;2022-10-16T04:56:23;101155.31;;;10.73;100.00
67840;BME280;54636;51.684;5.142;2022-10-16T04:58:49;101161.41;;;10.68;100.00
67840;BME280;54636;51.684;5.142;2022-10-16T05:01:14;101169.00;;;10.64;100.00
67840;BME280;54636;51.684;5.142;2022-10-16T05:03:40;101167.44;;;10.57;100.00
67840;BME280;54636;51.684;5.142;2022-10-16T05:06:06;101173.16;;;10.60;100.00
67840;BME280;54636;51.684;5.142;2022-10-16T05:08:32;101169.41;;;10.57;100.00
67840;BME280;54636;51.684;5.142;2022-10-16T05:10:58;101161.81;;;10.46;100.00
67840;BME280;54636;51.684;5.142;2022-10-16T05:13:23;101175.69;;;10.48;100.00
67840;BME280;54636;51.684;5.142;2022-10-16T05:15:48;101163.84;;;10.31;100.00
67840;BME280;54636;51.684;5.142;2022-10-16T05:18:14;101180.22;;;10.37;100.00
67840;BME280;54636;51.684;5.142;2022-10-16T05:20:40;101197.88;;;10.47;100.00
67840;BME280;54636;51.684;5.142;2022-10-16T05:23:06;101208.47;;;10.60;100.00
67840;BME280;54636;51.684;5.142;2022-10-16T05:25:31;101210.34;;;10.53;100.00
67840;BME280;54636;51.684;5.142;2022-10-16T05:27:56;101205.00;;;10.44;100.00
67840;BME280;54636;51.684;5.142;2022-10-16T05:30:22;101209.59;;;10.53;100.00
67840;BME280;54636;51.684;5.142;2022-10-16T05:32:48;101216.63;;;10.45;100.00
67840;BME280;54636;51.684;5.142;2022-10-16T05:35:15;101196.97;;;10.35;100.00
67840;BME280;54636;51.684;5.142;2022-10-16T05:37:41;101219.41;;;10.50;100.00
67840;BME280;54636;51.684;5.142;2022-10-16T05:40:08;101216.22;;;10.52;100.00
67840;BME280;54636;51.684;5.142;2022-10-16T05:42:33;101220.91;;;10.51;100.00
67840;BME280;54636;51.684;5.142;2022-10-16T05:45:01;101229.53;;;10.50;100.00
67840;BME280;54636;51.684;5.142;2022-10-16T05:47:27;101231.50;;;10.49;100.00
67840;BME280;54636;51.684;5.142;2022-10-16T05:49:52;101239.94;;;10.51;100.00
67840;BME280;54636;51.684;5.142;2022-10-16T05:52:18;101247.88;;;10.55;100.00
67840;BME280;54636;51.684;5.142;2022-10-16T05:54:43;101243.88;;;10.50;100.00
67840;BME280;54636;51.684;5.142;2022-10-16T05:57:09;101237.88;;;10.46;100.00
67840;BME280;54636;51.684;5.142;2022-10-16T05:59:34;101249.75;;;10.64;100.00
67840;BME280;54636;51.684;5.142;2022-10-16T06:02:00;101250.59;;;10.70;100.00
67840;BME280;54636;51.684;5.142;2022-10-16T06:04:25;101248.81;;;10.67;100.00
67840;BME280;54636;51.684;5.142;2022-10-16T06:06:51;101264.66;;;10.68;100.00
67840;BME280;54636;51.684;5.142;2022-10-16T06:09:16;101261.19;;;10.68;100.00
67840;BME280;54636;51.684;5.142;2022-10-16T06:11:41;101267.56;;;10.65;100.00
67840;BME280;54636;51.684;5.142;2022-10-16T06:14:08;101262.03;;;10.59;100.00
67840;BME280;54636;51.684;5.142;2022-10-16T06:16:35;101265.78;;;10.62;100.00
67840;BME280;54636;51.684;5.142;2022-10-16T06:19:02;101266.25;;;10.60;100.00
67840;BME280;54636;51.684;5.142;2022-10-16T06:21:29;101274.03;;;10.67;100.00
67840;BME280;54636;51.684;5.142;2022-10-16T06:23:55;101278.03;;;10.72;100.00
67840;BME280;54636;51.684;5.142;2022-10-16T06:26:23;101260.06;;;10.60;100.00
67840;BME280;54636;51.684;5.142;2022-10-16T06:28:49;101288.34;;;10.82;100.00
67840;BME280;54636;51.684;5.142;2022-10-16T06:31:15;101292.56;;;10.83;100.00
67840;BME280;54636;51.684;5.142;2022-10-16T06:33:41;101287.78;;;10.78;100.00
67840;BME280;54636;51.684;5.142;2022-10-16T06:36:10;101300.97;;;11.00;100.00
67840;BME280;54636;51.684;5.142;2022-10-16T06:38:36;101303.28;;;11.07;100.00
67840;BME280;54636;51.684;5.142;2022-10-16T06:41:02;101307.72;;;11.05;100.00
67840;BME280;54636;51.684;5.142;2022-10-16T06:43:29;101313.94;;;11.26;100.00
67840;BME280;54636;51.684;5.142;2022-10-16T06:45:58;101311.84;;;11.35;100.00
67840;BME280;54636;51.684;5.142;2022-10-16T06:48:23;101311.00;;;11.44;100.00
67840;BME280;54636;51.684;5.142;2022-10-16T06:51:00;101322.44;;;11.48;100.00
67840;BME280;54636;51.684;5.142;2022-10-16T06:53:28;101325.16;;;11.48;100.00
67840;BME280;54636;51.684;5.142;2022-10-16T06:55:53;101333.31;;;11.48;100.00
67840;BME280;54636;51.684;5.142;2022-10-16T06:58:19;101341.75;;;11.50;100.00
67840;BME280;54636;51.684;5.142;2022-10-16T07:00:44;101338.63;;;11.57;100.00
67840;BME280;54636;51.684;5.142;2022-10-16T07:03:10;101338.91;;;11.59;100.00
67840;BME280;54636;51.684;5.142;2022-10-16T07:05:39;101329.59;;;11.66;100.00
67840;BME280;54636;51.684;5.142;2022-10-16T07:08:05;101347.38;;;11.81;100.00
67840;BME280;54636;51.684;5.142;2022-10-16T07:10:31;101347.16;;;11.85;100.00
67840;BME280;54636;51.684;5.142;2022-10-16T07:12:57;101355.69;;;11.93;100.00
67840;BME280;54636;51.684;5.142;2022-10-16T07:15:22;101367.59;;;11.95;100.00
67840;BME280;54636;51.684;5.142;2022-10-16T07:17:48;101378.69;;;11.92;100.00
67840;BME280;54636;51.684;5.142;2022-10-16T07:20:13;101385.41;;;11.96;100.00
67840;BME280;54636;51.684;5.142;2022-10-16T07:22:39;101390.66;;;12.00;100.00
67840;BME280;54636;51.684;5.142;2022-10-16T07:25:04;101393.47;;;12.05;100.00
67840;BME280;54636;51.684;5.142;2022-10-16T07:27:30;101393.19;;;12.03;100.00
67840;BME280;54636;51.684;5.142;2022-10-16T07:29:55;101390.47;;;12.03;100.00
67840;BME280;54636;51.684;5.142;2022-10-16T07:32:21;101400.41;;;12.06;100.00
67840;BME280;54636;51.684;5.142;2022-10-16T07:34:46;101409.59;;;12.09;100.00
67840;BME280;54636;51.684;5.142;2022-10-16T07:37:11;101397.47;;;12.10;100.00
67840;BME280;54636;51.684;5.142;2022-10-16T07:39:37;101386.72;;;12.01;100.00
67840;BME280;54636;51.684;5.142;2022-10-16T07:42:02;101386.03;;;12.06;100.00
67840;BME280;54636;51.684;5.142;2022-10-16T07:44:27;101417.50;;;12.27;100.00
67840;BME280;54636;51.684;5.142;2022-10-16T07:46:53;101407.34;;;12.28;100.00
67840;BME280;54636;51.684;5.142;2022-10-16T07:49:18;101423.63;;;12.22;100.00
67840;BME280;54636;51.684;5.142;2022-10-16T07:51:43;101426.47;;;12.13;100.00
67840;BME280;54636;51.684;5.142;2022-10-16T07:54:09;101438.81;;;12.08;100.00
67840;BME280;54636;51.684;5.142;2022-10-16T07:56:35;101422.97;;;11.92;100.00
67840;BME280;54636;51.684;5.142;2022-10-16T07:59:00;101432.06;;;12.04;100.00
67840;BME280;54636;51.684;5.142;2022-10-16T08:01:26;101420.88;;;12.02;100.00
67840;BME280;54636;51.684;5.142;2022-10-16T08:03:52;101444.31;;;12.14;100.00
67840;BME280;54636;51.684;5.142;2022-10-16T08:06:19;101396.56;;;11.78;100.00
67840;BME280;54636;51.684;5.142;2022-10-16T08:08:44;101446.00;;;12.11;100.00
67840;BME280;54636;51.684;5.142;2022-10-16T08:11:10;101460.53;;;12.23;100.00
67840;BME280;54636;51.684;5.142;2022-10-16T08:13:36;101465.56;;;12.30;100.00
67840;BME280;54636;51.684;5.142;2022-10-16T08:16:02;101482.72;;;12.36;100.00
67840;BME280;54636;51.684;5.142;2022-10-16T08:18:33;101481.28;;;12.41;100.00
67840;BME280;54636;51.684;5.142;2022-10-16T08:20:59;101471.41;;;12.43;100.00
67840;BME280;54636;51.684;5.142;2022-10-16T08:23:26;101483.47;;;12.57;100.00
67840;BME280;54636;51.684;5.142;2022-10-16T08:25:53;101474.06;;;12.58;100.00
67840;BME280;54636;51.684;5.142;2022-10-16T08:28:19;101483.34;;;12.66;100.00
67840;BME280;54636;51.684;5.142;2022-10-16T08:30:45;101491.31;;;12.70;100.00
67840;BME280;54636;51.684;5.142;2022-10-16T08:33:10;101493.69;;;12.82;100.00
67840;BME280;54636;51.684;5.142;2022-10-16T08:35:36;101495.25;;;12.89;100.00
67840;BME280;54636;51.684;5.142;2022-10-16T08:38:05;101457.56;;;12.67;100.00
67840;BME280;54636;51.684;5.142;2022-10-16T08:40:35;101501.84;;;13.08;100.00
67840;BME280;54636;51.684;5.142;2022-10-16T08:48:46;101519.00;;;13.35;100.00
67840;BME280;54636;51.684;5.142;2022-10-16T08:51:39;101512.84;;;13.40;100.00
67840;BME280;54636;51.684;5.142;2022-10-16T08:54:34;101521.84;;;13.46;100.00
67840;BME280;54636;51.684;5.142;2022-10-16T08:57:21;101524.34;;;13.49;100.00
67840;BME280;54636;51.684;5.142;2022-10-16T08:59:46;101529.38;;;13.57;100.00
67840;BME280;54636;51.684;5.142;2022-10-16T09:02:35;101533.66;;;13.63;100.00
67840;BME280;54636;51.684;5.142;2022-10-16T09:07:53;101535.97;;;13.76;100.00
67840;BME280;54636;51.684;5.142;2022-10-16T09:13:35;101538.09;;;13.92;100.00
67840;BME280;54636;51.684;5.142;2022-10-16T09:16:12;101545.34;;;14.01;100.00
67840;BME280;54636;51.684;5.142;2022-10-16T09:18:53;101535.69;;;14.05;100.00
67840;BME280;54636;51.684;5.142;2022-10-16T09:21:29;101525.09;;;14.18;100.00
67840;BME280;54636;51.684;5.142;2022-10-16T09:24:14;101532.88;;;14.37;100.00
67840;BME280;54636;51.684;5.142;2022-10-16T09:26:40;101547.94;;;14.58;100.00
67840;BME280;54636;51.684;5.142;2022-10-16T09:29:05;101544.00;;;14.70;100.00
67840;BME280;54636;51.684;5.142;2022-10-16T09:31:31;101552.28;;;14.87;100.00
67840;BME280;54636;51.684;5.142;2022-10-16T09:34:02;101551.81;;;14.94;100.00
67840;BME280;54636;51.684;5.142;2022-10-16T09:36:44;101543.81;;;14.96;98.71
67840;BME280;54636;51.684;5.142;2022-10-16T09:39:11;101558.31;;;15.13;100.00
67840;BME280;54636;51.684;5.142;2022-10-16T09:41:39;101534.41;;;15.03;97.34
67840;BME280;54636;51.684;5.142;2022-10-16T09:46:40;101554.34;;;15.26;97.67
67840;BME280;54636;51.684;5.142;2022-10-16T09:49:22;101566.06;;;15.37;97.88
67840;BME280;54636;51.684;5.142;2022-10-16T09:51:48;101529.97;;;15.22;96.99
67840;BME280;54636;51.684;5.142;2022-10-16T09:54:16;101551.91;;;15.50;93.99
67840;BME280;54636;51.684;5.142;2022-10-16T09:56:42;101565.84;;;15.63;94.94
67840;BME280;54636;51.684;5.142;2022-10-16T09:59:16;101572.34;;;15.71;96.15
67840;BME280;54636;51.684;5.142;2022-10-16T10:01:47;101563.88;;;15.75;93.43
67840;BME280;54636;51.684;5.142;2022-10-16T10:04:13;101543.69;;;15.67;91.64
67840;BME280;54636;51.684;5.142;2022-10-16T10:06:46;101564.38;;;15.90;89.29
67840;BME280;54636;51.684;5.142;2022-10-16T10:09:22;101562.13;;;15.89;90.34
67840;BME280;54636;51.684;5.142;2022-10-16T10:11:57;101558.66;;;15.88;88.77
67840;BME280;54636;51.684;5.142;2022-10-16T10:14:34;101550.91;;;16.03;88.77
67840;BME280;54636;51.684;5.142;2022-10-16T10:22:40;101583.75;;;16.26;89.20
67840;BME280;54636;51.684;5.142;2022-10-16T10:38:59;101596.56;;;16.87;81.90
67840;BME280;54636;51.684;5.142;2022-10-16T10:44:35;101600.09;;;17.28;80.20
67840;BME280;54636;51.684;5.142;2022-10-16T11:06:28;101610.28;;;17.39;75.16
67840;BME280;54636;51.684;5.142;2022-10-16T11:14:14;101608.56;;;16.78;76.99
67840;BME280;54636;51.684;5.142;2022-10-16T11:19:37;101620.38;;;17.14;77.82
67840;BME280;54636;51.684;5.142;2022-10-16T11:22:13;101612.91;;;17.15;74.87
67840;BME280;54636;51.684;5.142;2022-10-16T11:24:49;101614.94;;;17.03;72.67
67840;BME280;54636;51.684;5.142;2022-10-16T11:27:20;101612.53;;;16.88;74.06
67840;BME280;54636;51.684;5.142;2022-10-16T11:29:58;101625.97;;;16.92;75.63
67840;BME280;54636;51.684;5.142;2022-10-16T11:32:35;101615.81;;;16.75;76.14
67840;BME280;54636;51.684;5.142;2022-10-16T11:41:27;101624.88;;;17.11;76.52
67840;BME280;54636;51.684;5.142;2022-10-16T11:44:06;101641.00;;;17.32;73.81
67840;BME280;54636;51.684;5.142;2022-10-16T11:46:40;101642.97;;;17.42;73.66
67840;BME280;54636;51.684;5.142;2022-10-16T11:49:15;101602.13;;;17.22;73.35
67840;BME280;54636;51.684;5.142;2022-10-16T11:54:49;101645.16;;;17.50;73.11
67840;BME280;54636;51.684;5.142;2022-10-16T12:02:44;101643.72;;;17.78;73.75
67840;BME280;54636;51.684;5.142;2022-10-16T12:08:13;101627.31;;;17.67;71.98
67840;BME280;54636;51.684;5.142;2022-10-16T12:10:42;101647.56;;;17.59;69.84
67840;BME280;54636;51.684;5.142;2022-10-16T12:13:34;101640.69;;;17.47;72.72
67840;BME280;54636;51.684;5.142;2022-10-16T12:18:40;101646.75;;;17.34;73.82
67840;BME280;54636;51.684;5.142;2022-10-16T12:23:53;101648.03;;;17.27;73.88
67840;BME280;54636;51.684;5.142;2022-10-16T12:26:34;101637.78;;;17.28;74.40
67840;BME280;54636;51.684;5.142;2022-10-16T12:29:38;101651.25;;;17.31;75.43
67840;BME280;54636;51.684;5.142;2022-10-16T12:32:06;101642.56;;;17.22;74.85
67840;BME280;54636;51.684;5.142;2022-10-16T12:34:47;101652.34;;;17.11;73.22
67840;BME280;54636;51.684;5.142;2022-10-16T12:37:20;101654.28;;;17.22;71.89
67840;BME280;54636;51.684;5.142;2022-10-16T12:39:47;101606.41;;;17.12;70.82
67840;BME280;54636;51.684;5.142;2022-10-16T12:42:30;101648.09;;;17.57;72.32
67840;BME280;54636;51.684;5.142;2022-10-16T12:44:56;101597.63;;;17.25;69.80
67840;BME280;54636;51.684;5.142;2022-10-16T12:50:28;101653.53;;;17.68;71.60
67840;BME280;54636;51.684;5.142;2022-10-16T12:52:56;101594.31;;;17.37;69.47
67840;BME280;54636;51.684;5.142;2022-10-16T12:55:22;101599.50;;;17.47;70.66
67840;BME280;54636;51.684;5.142;2022-10-16T13:00:45;101640.50;;;17.74;70.36
67840;BME280;54636;51.684;5.142;2022-10-16T13:14:58;101648.47;;;17.78;71.26
67840;BME280;54636;51.684;5.142;2022-10-16T13:17:45;101643.81;;;17.67;70.74
67840;BME280;54636;51.684;5.142;2022-10-16T13:20:24;101621.22;;;17.44;69.60
67840;BME280;54636;51.684;5.142;2022-10-16T13:23:34;101659.75;;;17.74;71.80
67840;BME280;54636;51.684;5.142;2022-10-16T13:28:28;101653.00;;;17.75;70.78
67840;BME280;54636;51.684;5.142;2022-10-16T13:30:57;101646.53;;;17.73;71.09
67840;BME280;54636;51.684;5.142;2022-10-16T13:33:46;101654.91;;;17.86;72.55
67840;BME280;54636;51.684;5.142;2022-10-16T13:36:24;101657.88;;;17.94;71.74
67840;BME280;54636;51.684;5.142;2022-10-16T13:39:22;101664.03;;;18.05;71.78
67840;BME280;54636;51.684;5.142;2022-10-16T13:41:58;101658.44;;;18.17;71.69
67840;BME280;54636;51.684;5.142;2022-10-16T13:44:26;101623.59;;;18.00;69.87
67840;BME280;54636;51.684;5.142;2022-10-16T13:46:59;101653.38;;;18.21;69.54
67840;BME280;54636;51.684;5.142;2022-10-16T13:49:25;101625.88;;;17.96;68.38
67840;BME280;54636;51.684;5.142;2022-10-16T13:51:58;101663.59;;;18.26;69.57
67840;BME280;54636;51.684;5.142;2022-10-16T13:54:27;101672.34;;;18.24;69.10
67840;BME280;54636;51.684;5.142;2022-10-16T13:56:56;101655.91;;;18.19;70.68
67840;BME280;54636;51.684;5.142;2022-10-16T13:59:35;101661.56;;;18.26;69.09
67840;BME280;54636;51.684;5.142;2022-10-16T14:02:08;101657.53;;;18.33;69.28
67840;BME280;54636;51.684;5.142;2022-10-16T14:04:41;101665.25;;;18.34;68.29
67840;BME280;54636;51.684;5.142;2022-10-16T14:07:13;101644.38;;;18.20;69.14
67840;BME280;54636;51.684;5.142;2022-10-16T14:09:40;101658.13;;;18.20;67.06
67840;BME280;54636;51.684;5.142;2022-10-16T14:12:10;101658.88;;;18.21;68.43
67840;BME280;54636;51.684;5.142;2022-10-16T14:14:47;101621.84;;;17.97;68.65
67840;BME280;54636;51.684;5.142;2022-10-16T14:17:26;101654.94;;;18.16;69.70
67840;BME280;54636;51.684;5.142;2022-10-16T14:19:55;101641.88;;;17.92;69.08
67840;BME280;54636;51.684;5.142;2022-10-16T14:22:32;101662.09;;;17.95;71.42
67840;BME280;54636;51.684;5.142;2022-10-16T14:24:58;101664.97;;;17.78;70.43
67840;BME280;54636;51.684;5.142;2022-10-16T14:27:33;101666.78;;;17.64;69.40
67840;BME280;54636;51.684;5.142;2022-10-16T14:30:26;101676.06;;;17.56;72.99
67840;BME280;54636;51.684;5.142;2022-10-16T14:32:58;101660.66;;;17.47;72.37
67840;BME280;54636;51.684;5.142;2022-10-16T14:35:36;101627.81;;;17.25;72.84
67840;BME280;54636;51.684;5.142;2022-10-16T14:38:03;101659.06;;;17.57;71.89
67840;BME280;54636;51.684;5.142;2022-10-16T14:40:31;101653.03;;;17.64;71.04
67840;BME280;54636;51.684;5.142;2022-10-16T14:42:57;101657.19;;;17.82;70.41
67840;BME280;54636;51.684;5.142;2022-10-16T14:45:28;101652.13;;;17.92;71.81
67840;BME280;54636;51.684;5.142;2022-10-16T14:47:56;101649.81;;;18.01;70.22
67840;BME280;54636;51.684;5.142;2022-10-16T14:50:22;101639.38;;;17.94;71.41
67840;BME280;54636;51.684;5.142;2022-10-16T14:52:48;101614.81;;;17.72;70.57
67840;BME280;54636;51.684;5.142;2022-10-16T14:55:14;101645.94;;;17.86;72.64
67840;BME280;54636;51.684;5.142;2022-10-16T14:57:40;101652.22;;;17.81;71.37
67840;BME280;54636;51.684;5.142;2022-10-16T15:00:20;101653.75;;;17.76;74.92